Back to Top

Language: 

My Weather Underground Personal Weather Station Historical Data with Graphs...

Delerius Weather Station Historical Data
Daily Summary for September 3, 2017 Units:  Metric    English   Both
« Previous Day
Next Day »
Daily Weekly Monthly Yearly Custom
  High: Low: Average:
Temperature: 16.7 °C 7.6 °C 12.6 °C
Dew Point: 13.1 °C 6.4 °C 10.4 °C
Humidity: 96 % 72 % 87 %
Wind Speed: 20.9 km/h 0 km/h 9.2 km/h
Wind Gust: 37 km/h - -
Wind:- - SE
Pressure: 1016.8 hPa 1008.4 hPa -
Precipitation: 0.76 mm    
Historical Graphs
 
 
Tabular Data for September 3, 2017
Time Temperature Dew Point Pressure Wind Wind Speed Wind Gust Humidity Rainfall Rate (Hourly) solar Conditions
00:04 9.9 °C 8.2 °C 1016.8 hPa Calm     89 % 0 mm 0 W/m2
00:09 9.8 °C 8.1 °C 1016.8 hPa Calm     89 % 0 mm 0 W/m2
00:14 9.7 °C 8 °C 1016.8 hPa Calm     89 % 0 mm 0 W/m2
00:19 9.6 °C 7.9 °C 1016.5 hPa Calm     89 % 0 mm 0 W/m2
00:24 9.5 °C 7.8 °C 1016.5 hPa Calm     89 % 0 mm 0 W/m2
00:29 9.4 °C 7.8 °C 1016.5 hPa Calm     90 % 0 mm 0 W/m2
00:34 9.4 °C 7.8 °C 1016.5 hPa Calm     90 % 0 mm 0 W/m2
00:39 9.3 °C 7.7 °C 1016.5 hPa Calm     90 % 0 mm 0 W/m2
00:44 9.3 °C 7.7 °C 1016.5 hPa Calm     90 % 0 mm 0 W/m2
00:49 9.2 °C 7.7 °C 1016.5 hPa Calm     90 % 0 mm 0 W/m2
00:54 9.1 °C 7.6 °C 1016.5 hPa Calm     90 % 0 mm 0 W/m2
00:59 9 °C 7.4 °C 1016.1 hPa Calm     90 % 0 mm 0 W/m2
01:04 8.9 °C 7.3 °C 1016.1 hPa Calm     90 % 0 mm 0 W/m2
01:09 8.9 °C 7.5 °C 1016.1 hPa Calm     91 % 0 mm 0 W/m2
01:14 8.8 °C 7.4 °C 1016.1 hPa Calm     91 % 0 mm 0 W/m2
01:19 8.8 °C 7.4 °C 1016.1 hPa Calm     91 % 0 mm 0 W/m2
01:24 8.8 °C 7.4 °C 1015.8 hPa Calm     91 % 0 mm 0 W/m2
01:29 8.8 °C 7.4 °C 1015.8 hPa Calm     91 % 0 mm 0 W/m2
01:34 8.7 °C 7.3 °C 1015.8 hPa Calm     91 % 0 mm 0 W/m2
01:39 8.6 °C 7.2 °C 1015.8 hPa Calm   1.6 km/h 91 % 0 mm 0 W/m2
01:44 8.6 °C 7.2 °C 1015.8 hPa Calm   1.6 km/h 91 % 0 mm 0 W/m2
01:49 8.6 °C 7.4 °C 1015.8 hPa Calm     92 % 0 mm 0 W/m2
01:54 8.6 °C 7.4 °C 1015.8 hPa Calm     92 % 0 mm 0 W/m2
01:59 8.6 °C 7.2 °C 1015.8 hPa Calm     91 % 0 mm 0 W/m2
02:04 8.5 °C 7.1 °C 1015.5 hPa Calm     91 % 0 mm 0 W/m2
02:09 8.4 °C 7.2 °C 1015.5 hPa Calm     92 % 0 mm 0 W/m2
02:14 8.4 °C 7.2 °C 1015.5 hPa Calm     92 % 0 mm 0 W/m2
02:19 8.4 °C 7.2 °C 1015.5 hPa Calm     92 % 0 mm 0 W/m2
02:24 8.3 °C 6.9 °C 1015.5 hPa Calm     91 % 0 mm 0 W/m2
02:29 8.2 °C 6.8 °C 1015.5 hPa Calm     91 % 0 mm 0 W/m2
02:34 8.2 °C 6.8 °C 1015.1 hPa Calm     91 % 0 mm 0 W/m2
02:39 8.1 °C 6.7 °C 1015.1 hPa Calm     91 % 0 mm 0 W/m2
02:44 7.9 °C 6.5 °C 1015.1 hPa Calm     91 % 0 mm 0 W/m2
02:49 7.9 °C 6.5 °C 1015.1 hPa Calm     91 % 0 mm 0 W/m2
02:54 7.9 °C 6.5 °C 1015.1 hPa Calm     91 % 0 mm 0 W/m2
02:59 7.8 °C 6.4 °C 1015.1 hPa Calm     91 % 0 mm 0 W/m2
03:04 7.8 °C 6.4 °C 1015.1 hPa Calm     91 % 0 mm 0 W/m2
03:09 7.7 °C 6.5 °C 1015.1 hPa Calm     92 % 0 mm 0 W/m2
03:14 7.6 °C 6.4 °C 1014.8 hPa Calm     92 % 0 mm 0 W/m2
03:19 7.6 °C 6.4 °C 1014.8 hPa Calm     92 % 0 mm 0 W/m2
03:24 7.6 °C 6.4 °C 1014.8 hPa Calm   1.6 km/h 92 % 0 mm 0 W/m2
03:29 7.6 °C 6.4 °C 1014.8 hPa Calm   1.6 km/h 92 % 0 mm 0 W/m2
03:34 7.6 °C 6.6 °C 1014.8 hPa Calm     93 % 0 mm 0 W/m2
03:39 7.6 °C 6.6 °C 1014.4 hPa Calm     93 % 0 mm 0 W/m2
03:44 7.6 °C 6.6 °C 1014.4 hPa Calm     93 % 0 mm 0 W/m2
03:49 7.7 °C 6.7 °C 1014.4 hPa Calm     93 % 0 mm 0 W/m2
03:54 7.7 °C 6.7 °C 1014.4 hPa Calm     93 % 0 mm 0 W/m2
03:59 7.8 °C 6.7 °C 1014.4 hPa Calm     93 % 0 mm 0 W/m2
04:05 7.8 °C 6.7 °C 1014.1 hPa Calm     93 % 0 mm 0 W/m2
04:10 7.8 °C 6.7 °C 1014.1 hPa Calm     93 % 0 mm 0 W/m2
04:16 7.8 °C 6.7 °C 1014.1 hPa Calm   1.6 km/h 93 % 0 mm 0 W/m2
04:18 8 °C 7.1 °C 1014.1 hPa Calm   1.6 km/h 94 % 0 mm 0 W/m2
04:21 8.1 °C 7.2 °C 1014.1 hPa Calm   1.6 km/h 94 % 0 mm 0 W/m2
04:22 8.2 °C 7.3 °C 1014.1 hPa Calm   1.6 km/h 94 % 0 mm 0 W/m2
04:23 8.3 °C 7.4 °C 1014.1 hPa Calm     94 % 0 mm 0 W/m2
04:26 8.3 °C 7.4 °C 1014.1 hPa Calm   1.6 km/h 94 % 0 mm 0 W/m2
04:31 8.5 °C 7.6 °C 1013.8 hPa Calm   1.6 km/h 94 % 0 mm 0 W/m2
04:36 8.6 °C 7.7 °C 1013.8 hPa Calm     94 % 0 mm 0 W/m2
04:41 8.6 °C 7.6 °C 1013.8 hPa Calm     93 % 0 mm 0 W/m2
04:46 8.7 °C 7.8 °C 1013.8 hPa Calm   6.4 km/h 94 % 0 mm 0 W/m2
04:51 8.9 °C 8 °C 1013.4 hPa SE 4.8 km/h 12.9 km/h 94 % 0 mm 0 W/m2
04:56 9.1 °C 8.2 °C 1013.8 hPa SE 8 km/h 12.9 km/h 94 % 0 mm 0 W/m2
05:01 9.3 °C 8.2 °C 1013.4 hPa SE 8 km/h 12.9 km/h 93 % 0 mm 0 W/m2
05:06 9.4 °C 8.2 °C 1013.4 hPa ESE 6.4 km/h 11.3 km/h 92 % 0 mm 0 W/m2
05:11 9.6 °C 8.4 °C 1013.4 hPa ESE 4.8 km/h 9.7 km/h 92 % 0 mm 0 W/m2
05:16 9.6 °C 8.2 °C 1013.4 hPa ESE 3.2 km/h 9.7 km/h 91 % 0 mm 0 W/m2
05:21 9.7 °C 8.3 °C 1013.4 hPa ESE 4.8 km/h 12.9 km/h 91 % 0 mm 0 W/m2
05:26 9.8 °C 8.2 °C 1013.4 hPa ESE 8 km/h 14.5 km/h 90 % 0 mm 0 W/m2
05:31 9.8 °C 8.2 °C 1013.4 hPa SE 9.7 km/h 14.5 km/h 90 % 0 mm 0 W/m2
05:36 9.9 °C 8.3 °C 1013.4 hPa SE 8 km/h 12.9 km/h 90 % 0 mm 0 W/m2
05:41 10 °C 8.3 °C 1013.4 hPa ESE 8 km/h 11.3 km/h 89 % 0 mm 0 W/m2
05:46 9.9 °C 8.2 °C 1013.4 hPa ESE 6.4 km/h 9.7 km/h 89 % 0 mm 0 W/m2
05:51 9.9 °C 8.2 °C 1013.4 hPa ESE 6.4 km/h 9.7 km/h 89 % 0 mm 0 W/m2
05:56 9.8 °C 8.1 °C 1013.1 hPa ESE 6.4 km/h 9.7 km/h 89 % 0 mm 0 W/m2
06:01 9.8 °C 8.1 °C 1013.1 hPa ESE 6.4 km/h 9.7 km/h 89 % 0 mm 0 W/m2
06:06 9.8 °C 8.1 °C 1013.1 hPa ESE 6.4 km/h 9.7 km/h 89 % 0 mm 0 W/m2
06:11 9.8 °C 8.1 °C 1013.1 hPa ESE 6.4 km/h 11.3 km/h 89 % 0 mm 0 W/m2
06:16 9.8 °C 8.1 °C 1013.1 hPa ESE 6.4 km/h 11.3 km/h 89 % 0 mm 5 W/m2
06:21 9.8 °C 8.1 °C 1013.1 hPa ESE 4.8 km/h 9.7 km/h 89 % 0 mm 5 W/m2
06:26 9.7 °C 8 °C 1013.1 hPa ESE 3.2 km/h 9.7 km/h 89 % 0 mm 9 W/m2
06:31 9.7 °C 8 °C 1013.1 hPa Calm   8 km/h 89 % 0 mm 12 W/m2
06:36 9.6 °C 7.9 °C 1013.1 hPa Calm   3.2 km/h 89 % 0 mm 16 W/m2
06:41 9.6 °C 8.1 °C 1012.8 hPa ESE 1.6 km/h 8 km/h 90 % 0 mm 18 W/m2
06:46 9.6 °C 8.1 °C 1012.8 hPa East 3.2 km/h 9.7 km/h 90 % 0 mm 19 W/m2
06:51 9.6 °C 8.1 °C 1012.8 hPa East 4.8 km/h 9.7 km/h 90 % 0 mm 23 W/m2
06:56 9.6 °C 8.1 °C 1012.8 hPa ESE 6.4 km/h 11.3 km/h 90 % 0 mm 28 W/m2
07:01 9.7 °C 8.3 °C 1012.8 hPa ESE 8 km/h 11.3 km/h 91 % 0 mm 32 W/m2
07:06 9.7 °C 8.3 °C 1012.8 hPa ESE 8 km/h 11.3 km/h 91 % 0 mm 37 W/m2
07:11 9.8 °C 8.4 °C 1012.8 hPa ESE 8 km/h 12.9 km/h 91 % 0 mm 42 W/m2
07:16 9.9 °C 8.5 °C 1012.8 hPa ESE 8 km/h 12.9 km/h 91 % 0 mm 47 W/m2
07:21 9.9 °C 8.5 °C 1012.8 hPa ESE 8 km/h 12.9 km/h 91 % 0 mm 54 W/m2
07:26 10.1 °C 8.7 °C 1012.8 hPa ESE 8 km/h 12.9 km/h 91 % 0 mm 63 W/m2
07:31 10.2 °C 8.9 °C 1012.8 hPa ESE 6.4 km/h 11.3 km/h 92 % 0 mm 74 W/m2
07:36 10.3 °C 8.9 °C 1012.8 hPa ESE 4.8 km/h 9.7 km/h 91 % 0 mm 83 W/m2
07:41 10.4 °C 9 °C 1012.4 hPa ESE 4.8 km/h 9.7 km/h 91 % 0 mm 93 W/m2
07:47 10.5 °C 9.3 °C 1012.4 hPa ESE 4.8 km/h 9.7 km/h 92 % 0 mm 95 W/m2
07:52 10.6 °C 9.2 °C 1012.4 hPa ESE 4.8 km/h 9.7 km/h 91 % 0 mm 107 W/m2
07:57 10.7 °C 9.3 °C 1012.4 hPa ESE 4.8 km/h 11.3 km/h 91 % 0 mm 121 W/m2
08:02 10.9 °C 9.5 °C 1012.4 hPa ESE 4.8 km/h 11.3 km/h 91 % 0 mm 137 W/m2
08:07 11.1 °C 9.7 °C 1012.4 hPa ESE 6.4 km/h 11.3 km/h 91 % 0 mm 146 W/m2
08:12 11.2 °C 9.8 °C 1012.4 hPa ESE 8 km/h 14.5 km/h 91 % 0 mm 141 W/m2
08:17 11.4 °C 9.8 °C 1012.4 hPa ESE 9.7 km/h 14.5 km/h 90 % 0 mm 176 W/m2
08:22 11.6 °C 10 °C 1012.4 hPa SE 8 km/h 12.9 km/h 90 % 0 mm 193 W/m2
08:27 11.8 °C 10.1 °C 1012.4 hPa SE 9.7 km/h 16.1 km/h 89 % 0 mm 225 W/m2
08:32 12.1 °C 10.3 °C 1012.4 hPa SE 11.3 km/h 17.7 km/h 89 % 0 mm 178 W/m2
08:37 12.2 °C 10.3 °C 1012.4 hPa SE 11.3 km/h 17.7 km/h 88 % 0 mm 250 W/m2
08:42 12.4 °C 10.4 °C 1012.1 hPa SE 11.3 km/h 17.7 km/h 88 % 0 mm 260 W/m2
08:47 12.7 °C 10.8 °C 1012.1 hPa SE 9.7 km/h 16.1 km/h 88 % 0 mm 255 W/m2
08:52 12.8 °C 10.7 °C 1012.1 hPa SE 9.7 km/h 17.7 km/h 87 % 0 mm 192 W/m2
08:57 12.9 °C 10.6 °C 1012.1 hPa SE 11.3 km/h 17.7 km/h 86 % 0 mm 165 W/m2
09:02 13 °C 10.7 °C 1012.1 hPa SE 11.3 km/h 22.5 km/h 86 % 0 mm 158 W/m2
09:07 13.1 °C 10.8 °C 1012.1 hPa SE 11.3 km/h 22.5 km/h 86 % 0 mm 162 W/m2
09:12 13.1 °C 10.8 °C 1012.1 hPa SE 11.3 km/h 16.1 km/h 86 % 0 mm 176 W/m2
09:17 13.2 °C 10.9 °C 1012.1 hPa SE 11.3 km/h 16.1 km/h 86 % 0 mm 186 W/m2
09:22 13.2 °C 10.9 °C 1011.7 hPa SE 11.3 km/h 16.1 km/h 86 % 0 mm 211 W/m2
09:27 13.3 °C 11 °C 1011.7 hPa SE 9.7 km/h 16.1 km/h 86 % 0 mm 227 W/m2
09:32 13.4 °C 11.1 °C 1011.7 hPa SE 9.7 km/h 16.1 km/h 86 % 0 mm 223 W/m2
09:37 13.6 °C 11.3 °C 1011.7 hPa SE 11.3 km/h 20.9 km/h 86 % 0 mm 197 W/m2
09:42 13.7 °C 11.2 °C 1011.7 hPa SE 12.9 km/h 20.9 km/h 85 % 0 mm 183 W/m2
09:48 13.7 °C 11.2 °C 1011.7 hPa SE 11.3 km/h 19.3 km/h 85 % 0 mm 183 W/m2
09:53 13.8 °C 11.3 °C 1011.7 hPa SE 11.3 km/h 19.3 km/h 85 % 0 mm 183 W/m2
09:58 13.9 °C 11.4 °C 1011.7 hPa SE 11.3 km/h 17.7 km/h 85 % 0 mm 185 W/m2
10:03 13.9 °C 11.4 °C 1011.4 hPa SE 12.9 km/h 24.1 km/h 85 % 0 mm 181 W/m2
10:08 14 °C 11.5 °C 1011.4 hPa SE 12.9 km/h 24.1 km/h 85 % 0 mm 174 W/m2
10:13 14.1 °C 11.6 °C 1011.4 hPa SE 11.3 km/h 19.3 km/h 85 % 0 mm 165 W/m2
10:18 14.2 °C 11.6 °C 1011.4 hPa SE 11.3 km/h 19.3 km/h 84 % 0 mm 167 W/m2
10:23 14.2 °C 11.6 °C 1011.4 hPa SE 12.9 km/h 19.3 km/h 84 % 0 mm 171 W/m2
10:28 14.3 °C 11.6 °C 1011.1 hPa SE 12.9 km/h 19.3 km/h 84 % 0 mm 174 W/m2
10:33 14.3 °C 11.6 °C 1011.1 hPa SE 14.5 km/h 24.1 km/h 84 % 0 mm 186 W/m2
10:38 14.4 °C 11.7 °C 1011.1 hPa SE 14.5 km/h 24.1 km/h 84 % 0 mm 214 W/m2
10:43 14.5 °C 11.7 °C 1011.1 hPa SE 16.1 km/h 32.2 km/h 83 % 0 mm 239 W/m2
10:48 14.6 °C 11.7 °C 1011.1 hPa SE 19.3 km/h 32.2 km/h 83 % 0 mm 250 W/m2
10:53 14.6 °C 11.7 °C 1011.1 hPa SSE 17.7 km/h 30.6 km/h 83 % 0 mm 223 W/m2
10:58 14.7 °C 11.8 °C 1011.1 hPa SSE 16.1 km/h 30.6 km/h 83 % 0 mm 211 W/m2
11:03 14.8 °C 11.9 °C 1011.1 hPa SE 16.1 km/h 32.2 km/h 83 % 0 mm 206 W/m2
11:08 14.8 °C 11.9 °C 1011.1 hPa SE 16.1 km/h 32.2 km/h 83 % 0 mm 199 W/m2
11:13 14.8 °C 11.9 °C 1011.1 hPa SSE 16.1 km/h 29 km/h 83 % 0 mm 199 W/m2
11:18 14.9 °C 12.1 °C 1010.7 hPa SSE 16.1 km/h 29 km/h 83 % 0 mm 214 W/m2
11:23 15 °C 12.1 °C 1010.7 hPa SSE 12.9 km/h 29 km/h 83 % 0 mm 236 W/m2
11:28 15.1 °C 12.1 °C 1010.7 hPa SSE 14.5 km/h 25.7 km/h 82 % 0 mm 216 W/m2
11:30 15.1 °C 12.2 °C 1010.7 hPa SE 14.5 km/h 25.7 km/h 83 % 0 mm 250 W/m2
11:35 15.2 °C 12.2 °C 1010.7 hPa SE 14.5 km/h 24.1 km/h 82 % 0 mm 250 W/m2
11:40 15.3 °C 12.4 °C 1010.7 hPa SSE 12.9 km/h 22.5 km/h 83 % 0 mm 246 W/m2
11:45 15.4 °C 12.3 °C 1010.4 hPa SE 12.9 km/h 24.1 km/h 82 % 0 mm 276 W/m2
11:50 15.5 °C 12.3 °C 1010.4 hPa SE 14.5 km/h 24.1 km/h 81 % 0 mm 271 W/m2
11:55 15.7 °C 12.4 °C 1010.4 hPa SE 14.5 km/h 24.1 km/h 81 % 0 mm 255 W/m2
12:00 15.7 °C 12.3 °C 1010.4 hPa SE 14.5 km/h 25.7 km/h 80 % 0 mm 250 W/m2
12:06 15.8 °C 12.2 °C 1010.4 hPa SE 16.1 km/h 30.6 km/h 79 % 0 mm 251 W/m2
12:11 15.8 °C 12.2 °C 1010.4 hPa SSE 16.1 km/h 30.6 km/h 79 % 0 mm 265 W/m2
12:16 15.9 °C 12.1 °C 1010.4 hPa SE 17.7 km/h 30.6 km/h 78 % 0 mm 236 W/m2
12:21 15.9 °C 11.9 °C 1010.4 hPa SE 20.9 km/h 33.8 km/h 77 % 0 mm 237 W/m2
12:26 15.9 °C 11.9 °C 1010.4 hPa SE 20.9 km/h 35.4 km/h 77 % 0 mm 241 W/m2
12:31 15.9 °C 12.1 °C 1010.4 hPa SSE 17.7 km/h 35.4 km/h 78 % 0 mm 237 W/m2
12:36 16.1 °C 12.3 °C 1010.4 hPa SSE 16.1 km/h 29 km/h 78 % 0 mm 225 W/m2
12:41 16.1 °C 12.1 °C 1010.4 hPa SE 17.7 km/h 29 km/h 77 % 0 mm 211 W/m2
12:46 16.2 °C 12.2 °C 1010.4 hPa SE 17.7 km/h 30.6 km/h 77 % 0 mm 178 W/m2
12:51 16.2 °C 12.3 °C 1010 hPa SE 16.1 km/h 30.6 km/h 78 % 0 mm 236 W/m2
12:56 16.3 °C 12.3 °C 1010 hPa SE 14.5 km/h 22.5 km/h 77 % 0 mm 230 W/m2
13:01 16.3 °C 12.1 °C 1010 hPa SE 17.7 km/h 30.6 km/h 76 % 0 mm 181 W/m2
13:06 16.3 °C 12.1 °C 1010 hPa SSE 19.3 km/h 32.2 km/h 76 % 0 mm 160 W/m2
13:11 16.3 °C 12.1 °C 1010 hPa SSE 17.7 km/h 32.2 km/h 76 % 0 mm 100 W/m2
13:16 16.3 °C 12.3 °C 1010 hPa SSE 16.1 km/h 30.6 km/h 77 % 0 mm 100 W/m2
13:21 16.3 °C 12.1 °C 1009.7 hPa SE 17.7 km/h 35.4 km/h 76 % 0 mm 81 W/m2
13:26 16.2 °C 11.9 °C 1009.7 hPa SE 17.7 km/h 35.4 km/h 76 % 0 mm 100 W/m2
13:31 16.2 °C 12.2 °C 1009.7 hPa SE 14.5 km/h 24.1 km/h 77 % 0 mm 46 W/m2
13:36 16.2 °C 12.2 °C 1009.7 hPa SSE 14.5 km/h 37 km/h 77 % 0 mm 134 W/m2
13:41 16.3 °C 12.3 °C 1009.7 hPa SSE 16.1 km/h 37 km/h 77 % 0 mm 216 W/m2
13:46 16.4 °C 12.2 °C 1009.7 hPa SE 16.1 km/h 30.6 km/h 76 % 0 mm 105 W/m2
13:51 16.4 °C 12.2 °C 1009.7 hPa SE 14.5 km/h 30.6 km/h 76 % 0 mm 83 W/m2
13:56 16.4 °C 11.9 °C 1009.7 hPa SSE 16.1 km/h 29 km/h 75 % 0 mm 62 W/m2
14:01 16.4 °C 12.2 °C 1009.7 hPa SSE 16.1 km/h 29 km/h 76 % 0 mm 81 W/m2
14:06 16.3 °C 12.1 °C 1009.7 hPa SSE 16.1 km/h 25.7 km/h 76 % 0 mm 163 W/m2
14:11 16.3 °C 12.1 °C 1009.7 hPa SSE 16.1 km/h 25.7 km/h 76 % 0 mm 142 W/m2
14:16 16.4 °C 11.9 °C 1009.7 hPa SSE 14.5 km/h 24.1 km/h 75 % 0 mm 113 W/m2
14:21 16.4 °C 11.8 °C 1009.4 hPa South 14.5 km/h 35.4 km/h 74 % 0 mm 125 W/m2
14:26 16.5 °C 11.7 °C 1009.4 hPa South 16.1 km/h 35.4 km/h 73 % 0 mm 288 W/m2
14:31 16.7 °C 11.8 °C 1009.4 hPa South 14.5 km/h 29 km/h 73 % 0 mm 97 W/m2
14:36 16.7 °C 11.6 °C 1009.4 hPa SSE 14.5 km/h 24.1 km/h 72 % 0 mm 56 W/m2
14:41 16.6 °C 11.6 °C 1009.4 hPa SSE 19.3 km/h 30.6 km/h 72 % 0 mm 53 W/m2
14:46 16.5 °C 11.4 °C 1009.4 hPa SSE 19.3 km/h 30.6 km/h 72 % 0 mm 62 W/m2
14:51 16.4 °C 11.3 °C 1009.4 hPa SSE 19.3 km/h 37 km/h 72 % 0 mm 70 W/m2
14:56 16.4 °C 11.3 °C 1009.4 hPa SSE 17.7 km/h 37 km/h 72 % 0 mm 95 W/m2
15:01 16.3 °C 11.2 °C 1009.4 hPa South 14.5 km/h 33.8 km/h 72 % 0 mm 105 W/m2
15:05 16.3 °C 11.2 °C 1009.4 hPa South 16.1 km/h 33.8 km/h 72 % 0 mm 95 W/m2
15:10 16.3 °C 11.4 °C 1009.4 hPa SSE 19.3 km/h 33.8 km/h 73 % 0 mm 81 W/m2
15:15 16.3 °C 11.4 °C 1009 hPa SSE 17.7 km/h 32.2 km/h 73 % 0 mm 90 W/m2
15:20 16.3 °C 11.4 °C 1009 hPa South 16.1 km/h 33.8 km/h 73 % 0 mm 100 W/m2
15:25 16.2 °C 11.6 °C 1009 hPa SSE 16.1 km/h 33.8 km/h 74 % 0 mm 79 W/m2
15:30 16.2 °C 11.6 °C 1009 hPa SSE 16.1 km/h 29 km/h 74 % 0 mm 74 W/m2
15:35 16.1 °C 11.7 °C 1009 hPa SSE 12.9 km/h 24.1 km/h 75 % 0 mm 100 W/m2
15:40 16.1 °C 11.7 °C 1009 hPa SSE 12.9 km/h 24.1 km/h 75 % 0 mm 86 W/m2
15:45 16 °C 11.8 °C 1009 hPa South 14.5 km/h 33.8 km/h 76 % 0 mm 100 W/m2
15:47 15.9 °C 11.9 °C 1009 hPa South 14.5 km/h 33.8 km/h 77 % 0 mm 104 W/m2
15:52 15.9 °C 11.9 °C 1009 hPa South 14.5 km/h 33.8 km/h 77 % 0 mm 114 W/m2
15:57 15.8 °C 11.9 °C 1009 hPa South 16.1 km/h 32.2 km/h 78 % 0 mm 79 W/m2
16:02 15.8 °C 12.2 °C 1009 hPa South 17.7 km/h 32.2 km/h 79 % 0 mm 44 W/m2
16:07 15.6 °C 12.2 °C 1009 hPa South 16.1 km/h 30.6 km/h 80 % 0 mm 86 W/m2
16:12 15.6 °C 12.3 °C 1009 hPa SSE 14.5 km/h 30.6 km/h 81 % 0 mm 134 W/m2
16:17 15.6 °C 12.3 °C 1009 hPa SSE 11.3 km/h 25.7 km/h 81 % 0 mm 146 W/m2
16:22 15.6 °C 12.2 °C 1008.7 hPa SSE 11.3 km/h 25.7 km/h 80 % 0 mm 148 W/m2
16:27 15.7 °C 12.3 °C 1008.7 hPa SSE 12.9 km/h 25.7 km/h 80 % 0 mm 146 W/m2
16:32 15.7 °C 12.3 °C 1008.7 hPa SSE 16.1 km/h 30.6 km/h 80 % 0 mm 146 W/m2
16:37 15.7 °C 12.3 °C 1008.7 hPa SSE 17.7 km/h 30.6 km/h 80 % 0 mm 155 W/m2
16:42 15.7 °C 12.4 °C 1008.7 hPa SSE 16.1 km/h 30.6 km/h 81 % 0 mm 151 W/m2
16:47 15.7 °C 12.4 °C 1008.7 hPa SSE 12.9 km/h 20.9 km/h 81 % 0 mm 135 W/m2
16:52 15.7 °C 12.6 °C 1008.4 hPa SSE 12.9 km/h 24.1 km/h 82 % 0 mm 113 W/m2
16:57 15.6 °C 12.6 °C 1008.4 hPa SSE 12.9 km/h 24.1 km/h 82 % 0 mm 104 W/m2
17:02 15.5 °C 12.6 °C 1008.4 hPa SSE 12.9 km/h 20.9 km/h 83 % 0 mm 98 W/m2
17:07 15.4 °C 12.7 °C 1008.4 hPa SE 11.3 km/h 20.9 km/h 84 % 0 mm 97 W/m2
17:12 15.3 °C 12.6 °C 1008.4 hPa SE 12.9 km/h 19.3 km/h 84 % 0 mm 104 W/m2
17:17 15.2 °C 12.7 °C 1008.4 hPa SE 12.9 km/h 20.9 km/h 85 % 0 mm 109 W/m2
17:22 15.3 °C 12.9 °C 1008.4 hPa SE 9.7 km/h 20.9 km/h 86 % 0 mm 98 W/m2
17:27 15.3 °C 12.9 °C 1008.4 hPa SE 8 km/h 14.5 km/h 86 % 0 mm 81 W/m2
17:32 15.2 °C 13.1 °C 1008.4 hPa SE 9.7 km/h 17.7 km/h 87 % 0 mm 76 W/m2
17:37 15.2 °C 13.1 °C 1008.4 hPa SE 11.3 km/h 17.7 km/h 87 % 0 mm 84 W/m2
17:42 15.1 °C 12.9 °C 1008.4 hPa SE 11.3 km/h 17.7 km/h 87 % 0 mm 90 W/m2
17:47 15.1 °C 12.9 °C 1008.4 hPa SE 11.3 km/h 17.7 km/h 87 % 0 mm 86 W/m2
17:53 15.1 °C 12.9 °C 1008.4 hPa SE 9.7 km/h 17.7 km/h 87 % 0 mm 77 W/m2
17:58 15.1 °C 12.9 °C 1008.4 hPa SSE 11.3 km/h 17.7 km/h 87 % 0 mm 69 W/m2
18:03 15 °C 12.7 °C 1008.4 hPa SSE 12.9 km/h 25.7 km/h 86 % 0 mm 56 W/m2
18:08 14.9 °C 12.4 °C 1008.4 hPa SSE 12.9 km/h 25.7 km/h 85 % 0 mm 49 W/m2
18:13 14.8 °C 12.3 °C 1008.4 hPa SSE 12.9 km/h 19.3 km/h 85 % 0 mm 46 W/m2
18:17 14.8 °C 12.3 °C 1008.4 hPa SSE 12.9 km/h 19.3 km/h 85 % 0 mm 44 W/m2
18:22 14.7 °C 12.2 °C 1008.4 hPa SSE 11.3 km/h 20.9 km/h 85 % 0 mm 44 W/m2
18:27 14.6 °C 12.1 °C 1008.4 hPa SSE 12.9 km/h 20.9 km/h 85 % 0 mm 42 W/m2
18:32 14.6 °C 12.1 °C 1008.4 hPa SE 14.5 km/h 19.3 km/h 85 % 0 mm 39 W/m2
18:37 14.4 °C 12.1 °C 1008.4 hPa SE 12.9 km/h 20.9 km/h 86 % 0 mm 39 W/m2
18:42 14.3 °C 12 °C 1008.4 hPa SSE 11.3 km/h 20.9 km/h 86 % 0 mm 32 W/m2
18:48 14.3 °C 12.2 °C 1008.4 hPa SSE 11.3 km/h 17.7 km/h 87 % 0 mm 25 W/m2
18:53 14.2 °C 12.1 °C 1008.4 hPa SSE 9.7 km/h 17.7 km/h 87 % 0 mm 19 W/m2
18:58 14.2 °C 12.1 °C 1008.4 hPa SSE 8 km/h 14.5 km/h 87 % 0 mm 18 W/m2
19:03 14.1 °C 11.9 °C 1008.4 hPa SSE 9.7 km/h 17.7 km/h 87 % 0 mm 21 W/m2
19:08 14.1 °C 12.2 °C 1008.4 hPa SSE 11.3 km/h 17.7 km/h 88 % 0 mm 23 W/m2
19:13 14.1 °C 12.2 °C 1008.4 hPa SSE 9.7 km/h 19.3 km/h 88 % 0 mm 18 W/m2
19:18 14 °C 12.1 °C 1008.4 hPa SSE 9.7 km/h 19.3 km/h 88 % 0 mm 14 W/m2
19:23 13.9 °C 12.1 °C 1008.4 hPa SSE 8 km/h 14.5 km/h 89 % 0 mm 14 W/m2
19:28 13.9 °C 12.1 °C 1008.4 hPa SSE 8 km/h 16.1 km/h 89 % 0 mm 12 W/m2
19:33 13.8 °C 12.2 °C 1008.4 hPa SSE 9.7 km/h 16.1 km/h 90 % 0 mm 7 W/m2
19:38 13.8 °C 12.2 °C 1008.4 hPa SSE 8 km/h 14.5 km/h 90 % 0 mm 7 W/m2
19:43 13.7 °C 12.3 °C 1008.4 hPa SSE 8 km/h 14.5 km/h 91 % 0.25 mm 0 W/m2
19:48 13.6 °C 12.2 °C 1008.4 hPa SSE 9.7 km/h 14.5 km/h 91 % 0.25 mm 0 W/m2
19:53 13.6 °C 12.3 °C 1008.4 hPa SE 8 km/h 14.5 km/h 92 % 0.25 mm 0 W/m2
19:58 13.5 °C 12.2 °C 1008.4 hPa SE 8 km/h 14.5 km/h 92 % 0.25 mm 0 W/m2
20:03 13.4 °C 12.1 °C 1008.4 hPa SE 8 km/h 12.9 km/h 92 % 0.25 mm 0 W/m2
20:08 13.4 °C 12.1 °C 1008.4 hPa SE 8 km/h 16.1 km/h 92 % 0.25 mm 0 W/m2
20:13 13.3 °C 12.2 °C 1008.7 hPa SE 8 km/h 16.1 km/h 93 % 0.25 mm 0 W/m2
20:18 13.3 °C 12.2 °C 1008.7 hPa SE 8 km/h 14.5 km/h 93 % 0.25 mm 0 W/m2
20:23 13.3 °C 12.2 °C 1008.7 hPa SE 8 km/h 17.7 km/h 93 % 0.25 mm 0 W/m2
20:28 13.2 °C 12.1 °C 1008.7 hPa SSE 9.7 km/h 17.7 km/h 93 % 0.25 mm 0 W/m2
20:33 13.2 °C 12.1 °C 1008.7 hPa SE 9.7 km/h 17.7 km/h 93 % 0.25 mm 0 W/m2
20:38 13.2 °C 12.1 °C 1008.7 hPa SE 11.3 km/h 17.7 km/h 93 % 0.25 mm 0 W/m2
20:43 13.1 °C 12 °C 1008.7 hPa SE 12.9 km/h 22.5 km/h 93 % 0 mm 0 W/m2
20:48 13 °C 11.9 °C 1008.7 hPa SE 12.9 km/h 22.5 km/h 93 % 0 mm 0 W/m2
20:53 13 °C 11.9 °C 1008.7 hPa SE 11.3 km/h 19.3 km/h 93 % 0 mm 0 W/m2
20:58 12.9 °C 11.8 °C 1008.7 hPa SE 11.3 km/h 19.3 km/h 93 % 0 mm 0 W/m2
20:59 12.9 °C 11.8 °C 1008.7 hPa SE 11.3 km/h 19.3 km/h 93 % 0 mm 0 W/m2
21:04 12.9 °C 11.8 °C 1008.7 hPa SE 11.3 km/h 19.3 km/h 93 % 0 mm 0 W/m2
21:09 12.9 °C 11.8 °C 1008.7 hPa SE 11.3 km/h 19.3 km/h 93 % 0 mm 0 W/m2
21:14 12.9 °C 11.9 °C 1008.7 hPa SE 12.9 km/h 19.3 km/h 94 % 0 mm 0 W/m2
21:19 12.9 °C 11.9 °C 1008.7 hPa SE 12.9 km/h 20.9 km/h 94 % 0.25 mm 0 W/m2
21:24 12.8 °C 11.8 °C 1009 hPa SE 12.9 km/h 20.9 km/h 94 % 0.25 mm 0 W/m2
21:29 12.8 °C 11.8 °C 1009 hPa SE 9.7 km/h 20.9 km/h 94 % 0.25 mm 0 W/m2
21:34 12.8 °C 11.8 °C 1009 hPa SE 9.7 km/h 19.3 km/h 94 % 0.25 mm 0 W/m2
21:39 12.8 °C 11.8 °C 1009 hPa SE 8 km/h 16.1 km/h 94 % 0.25 mm 0 W/m2
21:44 12.8 °C 11.8 °C 1009 hPa SE 8 km/h 16.1 km/h 94 % 0.25 mm 0 W/m2
21:49 12.8 °C 11.8 °C 1009 hPa SE 9.7 km/h 19.3 km/h 94 % 0.25 mm 0 W/m2
21:54 12.8 °C 11.8 °C 1009 hPa SE 11.3 km/h 19.3 km/h 94 % 0.25 mm 0 W/m2
21:59 12.7 °C 11.8 °C 1009 hPa SSE 11.3 km/h 20.9 km/h 94 % 0.25 mm 0 W/m2
22:04 12.7 °C 11.9 °C 1008.7 hPa SE 11.3 km/h 20.9 km/h 95 % 0.25 mm 0 W/m2
22:10 12.7 °C 11.9 °C 1009 hPa SE 9.7 km/h 19.3 km/h 95 % 0.25 mm 0 W/m2
22:14 12.7 °C 11.9 °C 1009 hPa SE 8 km/h 19.3 km/h 95 % 0.25 mm 0 W/m2
22:20 12.7 °C 11.9 °C 1009 hPa SE 8 km/h 14.5 km/h 95 % 0 mm 0 W/m2
22:25 12.7 °C 11.9 °C 1008.7 hPa SE 11.3 km/h 20.9 km/h 95 % 0 mm 0 W/m2
22:30 12.7 °C 11.9 °C 1008.7 hPa SE 11.3 km/h 20.9 km/h 95 % 0.25 mm 0 W/m2
22:35 12.6 °C 11.8 °C 1008.7 hPa SE 9.7 km/h 17.7 km/h 95 % 0.25 mm 0 W/m2
22:40 12.6 °C 11.8 °C 1009 hPa SE 11.3 km/h 17.7 km/h 95 % 0.25 mm 0 W/m2
22:45 12.6 °C 11.8 °C 1009 hPa SE 11.3 km/h 19.3 km/h 95 % 0.25 mm 0 W/m2
22:50 12.6 °C 11.8 °C 1009 hPa SE 11.3 km/h 19.3 km/h 95 % 0.25 mm 0 W/m2
22:55 12.6 °C 11.8 °C 1009 hPa SE 11.3 km/h 19.3 km/h 95 % 0.25 mm 0 W/m2
22:57 12.5 °C 11.7 °C 1009 hPa SE 11.3 km/h 19.3 km/h 95 % 0.25 mm 0 W/m2
23:01 12.5 °C 11.7 °C 1009 hPa SE 12.9 km/h 20.9 km/h 95 % 0.51 mm 0 W/m2
23:07 12.5 °C 11.7 °C 1009 hPa SE 11.3 km/h 20.9 km/h 95 % 0.51 mm 0 W/m2
23:11 12.5 °C 11.7 °C 1008.7 hPa SE 11.3 km/h 19.3 km/h 95 % 0.51 mm 0 W/m2
23:16 12.5 °C 11.7 °C 1008.7 hPa SE 9.7 km/h 16.1 km/h 95 % 0.51 mm 0 W/m2
23:21 12.5 °C 11.9 °C 1008.7 hPa SE 8 km/h 14.5 km/h 96 % 0.51 mm 0 W/m2
23:26 12.5 °C 11.9 °C 1009 hPa SE 8 km/h 14.5 km/h 96 % 0.25 mm 0 W/m2
23:31 12.5 °C 11.9 °C 1008.7 hPa SE 9.7 km/h 16.1 km/h 96 % 0.25 mm 0 W/m2
23:36 12.5 °C 11.9 °C 1008.7 hPa SE 11.3 km/h 16.1 km/h 96 % 0.25 mm 0 W/m2
23:41 12.5 °C 11.9 °C 1008.7 hPa SE 9.7 km/h 17.7 km/h 96 % 0.25 mm 0 W/m2
23:46 12.5 °C 11.9 °C 1008.7 hPa SE 11.3 km/h 17.7 km/h 96 % 0.25 mm 0 W/m2
23:51 12.5 °C 11.9 °C 1008.7 hPa ESE 9.7 km/h 17.7 km/h 96 % 0.25 mm 0 W/m2
23:56 12.5 °C 11.9 °C 1008.7 hPa ESE 8 km/h 16.1 km/h 96 % 0.25 mm 0 W/m2
Delerius-Weather
Compliments of Weather Underground - 2.25 mb

Data updates at regular intervals.